Cincinnati (CVG/KCVG)

Map

Destinations

Information

Location
Cincinnati, KY
Local Time
09:15 / 9:15 am
GMT Time
14:15 / 2:15 pm
Gates
Unassigned
No FAA reported delays
METAR KCVG 221352Z 07008KT 7SM FEW130 BKN150 OVC200 11/09 A2956 RMK AO2 SLP007 T01060094
TAF KCVG 221120Z 2212/2318 16003KT 5SM BR BKN150 FM221300 08006KT P6SM FEW080 BKN150 FM222100 06010KT P6SM VCSH SCT025 OVC080 FM230000 03010KT 5SM -SHRA BR OVC015 FM231000 36010KT 3SM -SHRA BR OVC007 FM231600 35010KT P6SM VCSH OVC012
  • No charts available